Oak Hill, WV (25901)

3:56 PM EDT on August 23, 2014 (GMT -0400)
F.I.T. - Oyler Ave. | Change Station
CLOSE
Current Station
Personal Weather Station
Location: Oak Hill, WV
Elevation: 1988 ft
Nearby Weather Stations

Elev 1988 ft 37.99 °N, 81.15 °W | Updated 5 seconds ago

Partly Cloudy
Partly Cloudy
81.5 °F
Feels Like 86 °F
N
0.0
Wind Variable Wind from NNW
Gusts 0.0 mph

Today
High -- | Low -- °F
--% Chance of Precip.
Yesterday
High -- | Low -- °F
Precip. -- in
6:46 AM 8:06 PM
Waning Crescent, 3% visible
Pressure 29.95 in
Visibility 10.0 miles
Clouds Few 2900 ft
Few 3600 ft
Heat Index 86 °F
Dew Point 72 °F
Humidity 73%
Rainfall 0.00 in
Snow Depth Not available.
UV 7 out of 12
Pollen 7.90 out of 12
Air Quality Not available.
Flu Activity Not available.
METAR KBKW 231951Z AUTO 34004KT 10SM FEW029 FEW036 27/20 A3006 RMK AO2 SLP141 T02720200 TSNO

More Conditions Fewer Conditions

Pressure 29.95 in
Visibility 10.0 miles
Clouds Few 2900 ft
Few 3600 ft
Heat Index 86 °F
Dew Point 72 °F
Humidity 73%
Rainfall 0.00 in
Snow Depth Not available.
UV 7 out of 12
Pollen 7.90 out of 12
Air Quality Not available.
Flu Activity Not available.
METAR KBKW 231951Z AUTO 34004KT 10SM FEW029 FEW036 27/20 A3006 RMK AO2 SLP141 T02720200 TSNO

More Conditions Fewer Conditions

10-Day Weather Forecast

Almanac

Astronomy

Aug. 23, 2014 Rise Set
Actual Time 6:46 AM EDT 8:06 PM EDT
Civil Twilight 6:19 AM EDT 8:34 PM EDT
Nautical Twilight 5:46 AM EDT 9:07 PM EDT
Astronomical Twilight 5:11 AM EDT 9:41 PM EDT
Moon 5:02 AM EDT 6:50 PM EDT
Length of Visible Light 14h 15m
Length of Day
13h 20m
Tomorrow will be 2m 16s shorter.
Waning Crescent, 3% of the Moon is Illuminated
Today
Waning Crescent
Aug 25
New
Sep 2
First Quarter
Sep 8
Full
Sep 15
Last Quarter

Today's Extremes

State Highs State Lows

Community

WunderPhotos

Upload Photos

1,746,583 photos uploaded!

WunderBlogs® & News

Nearby

Snow Depth

Station Depth Elevation
No new snow has been reported.

Earthquake Activity

City Distance Mag. Time & Date
No recent earthquake activity has been reported nearby.
Minimum magnitude displayed is 2.5.

Coastal Water Temperatures

Place Temperature
No Stations Reporting

Nearby Weather Stations